Terminal Aerodrome Forecast
Issued by NWS Louisville, KY

Home | Current Version | Previous Version | Text Only | Print | Product List | Glossary On
Versions: 1 2 3 4 5 6 7 8 9 10 11 12 13 14 15 16 17 18 19 20 21 22
000
FTUS43 KLMK 152334
TAFSDF
TAF
KSDF 152334Z 1600/1706 22015G26KT P6SM OVC040 WS020/23045KT
     FM160100 22014G24KT P6SM OVC025 WS020/24050KT
     FM160700 26012G22KT 4SM SHRA OVC015
     FM161000 33015G25KT 4SM SHRA OVC015
     FM161800 34014KT P6SM OVC025
     FM162100 35009KT P6SM BKN035=

USA.gov is the U.S. government's official web portal to all federal, state and local government web resources and services.